Time;durP1;ratioP1;P1;durP2;ratioP2;P2;SDS_P1;SDS_P2;PMS_P1;PMS_P2;Temp;Humidity;BMP_temperature;BMP_pressure;BME280_temperature;BME280_humidity;BME280_pressure;Samples;Min_cycle;Max_cycle;Signal;HPM_P1;HPM_P2
2024/01/20 00:02:25;;;;;;;0.10;0.10;;;;;;;-8.72;88.85;101526.09;5051038;28;20471;-51
2024/01/20 00:04:51;;;;;;;0.10;0.10;;;;;;;-8.64;89.00;101525.69;5051207;28;20977;-50
2024/01/20 00:07:19;;;;;;;0.10;0.10;;;;;;;-8.22;89.43;101520.84;5051525;28;20451;-49
2024/01/20 00:09:46;;;;;;;0.10;0.10;;;;;;;-8.14;90.70;101519.63;5044234;28;20460;-50
2024/01/20 00:12:18;;;;;;;0.10;0.10;;;;;;;-7.95;91.11;101520.81;5037430;28;20494;-50
2024/01/20 00:14:44;;;;;;;0.10;0.10;;;;;;;-7.79;91.57;101521.06;5051171;28;20453;-50
2024/01/20 00:17:12;;;;;;;0.10;0.10;;;;;;;-7.79;91.50;101526.22;5051591;28;20493;-49
2024/01/20 00:19:50;;;;;;;8.10;7.80;;;;;;;-7.68;91.18;101514.88;5051478;28;20474;-50
2024/01/20 00:22:21;;;;;;;0.10;0.10;;;;;;;-7.79;92.02;101521.94;5051306;28;20475;-50
2024/01/20 00:24:49;;;;;;;0.10;0.10;;;;;;;-7.76;92.21;101505.75;5051292;28;20536;-49
2024/01/20 00:27:15;;;;;;;0.10;0.10;;;;;;;-7.59;92.79;101496.50;5051003;28;20450;-51
2024/01/20 00:29:44;;;;;;;0.10;0.10;;;;;;;-7.30;93.62;101498.31;5032749;28;20814;-49
2024/01/20 00:32:10;;;;;;;0.10;0.10;;;;;;;-7.03;93.92;101506.88;5043562;28;20499;-50
2024/01/20 00:34:37;;;;;;;0.10;0.10;;;;;;;-6.88;94.36;101500.06;5051246;28;20451;-49
2024/01/20 00:37:21;;;;;;;0.10;0.10;;;;;;;-6.77;94.41;101513.66;5028656;28;20892;-50
2024/01/20 00:39:47;;;;;;;0.10;0.10;;;;;;;-6.68;93.97;101509.94;5036882;28;20464;-50
2024/01/20 00:42:14;;;;;;;0.10;0.10;;;;;;;-6.74;94.16;101511.22;5050490;28;20551;-50
2024/01/20 00:44:41;;;;;;;0.10;0.10;;;;;;;-6.53;93.90;101514.22;5051489;28;20450;-50
2024/01/20 00:47:08;;;;;;;0.20;0.10;;;;;;;-6.31;93.98;101512.09;5051360;28;20533;-50
2024/01/20 00:49:35;;;;;;;0.10;0.10;;;;;;;-6.16;94.19;101514.72;5050646;28;20835;-50
2024/01/20 00:52:01;;;;;;;0.10;0.10;;;;;;;-6.15;94.59;101526.84;5038298;28;20490;-50
2024/01/20 00:54:28;;;;;;;0.10;0.10;;;;;;;-6.03;94.76;101536.22;5032924;28;20476;-50
2024/01/20 00:56:54;;;;;;;0.10;0.10;;;;;;;-6.04;94.90;101530.91;5050831;28;20478;-49
2024/01/20 00:59:21;;;;;;;0.10;0.10;;;;;;;-6.00;94.51;101531.19;5049014;28;20514;-50
2024/01/20 01:01:47;;;;;;;0.20;0.20;;;;;;;-5.98;94.97;101542.53;5050800;28;20848;-50
2024/01/20 01:04:14;;;;;;;0.10;0.10;;;;;;;-6.03;93.93;101555.97;5050693;28;20457;-49
2024/01/20 01:06:41;;;;;;;0.10;0.10;;;;;;;-5.98;94.37;101549.41;5050844;28;20451;-50
2024/01/20 01:09:08;;;;;;;0.20;0.10;;;;;;;-6.22;95.09;101543.69;5024356;28;20452;-50
2024/01/20 01:11:35;;;;;;;0.10;0.10;;;;;;;-6.21;95.78;101550.63;5029959;28;21022;-52
2024/01/20 01:14:02;;;;;;;0.10;0.10;;;;;;;-6.27;95.55;101553.75;5051928;28;20455;-50
2024/01/20 01:16:28;;;;;;;0.10;0.10;;;;;;;-6.27;96.15;101551.19;5038734;28;20456;-49
2024/01/20 01:18:54;;;;;;;0.10;0.10;;;;;;;-6.16;96.10;101559.56;5044285;28;20541;-50
2024/01/20 01:21:21;;;;;;;0.10;0.10;;;;;;;-6.10;96.90;101556.44;5054227;28;20466;-50
2024/01/20 01:23:47;;;;;;;0.10;0.10;;;;;;;-6.08;96.90;101566.06;5053947;28;20940;-49
2024/01/20 01:26:15;;;;;;;0.10;0.10;;;;;;;-6.02;96.53;101570.72;5054144;28;20451;-50
2024/01/20 01:28:42;;;;;;;0.10;0.10;;;;;;;-5.93;96.30;101570.34;5053993;28;20496;-50
2024/01/20 01:31:08;;;;;;;0.10;0.10;;;;;;;-5.91;96.05;101572.22;5054004;28;20490;-50
2024/01/20 01:33:36;;;;;;;0.10;0.10;;;;;;;-5.80;96.20;101578.00;5053927;28;20561;-50
2024/01/20 01:36:03;;;;;;;0.10;0.10;;;;;;;-5.82;96.34;101571.84;5050312;28;20490;-51
2024/01/20 01:38:30;;;;;;;0.10;0.10;;;;;;;-5.99;96.46;101576.09;5026267;28;20773;-49
2024/01/20 01:40:57;;;;;;;0.20;0.10;;;;;;;-5.81;96.65;101564.16;5046441;28;20470;-50
2024/01/20 01:43:23;;;;;;;0.20;0.10;;;;;;;-5.92;97.05;101575.63;5053816;28;20827;-50
2024/01/20 01:45:50;;;;;;;0.13;0.10;;;;;;;-6.06;98.47;101573.91;5053806;28;20967;-50
2024/01/20 01:48:17;;;;;;;0.20;0.10;;;;;;;-6.07;99.62;101573.03;5047615;28;20470;-49
2024/01/20 01:50:43;;;;;;;0.10;0.10;;;;;;;-6.12;100.00;101579.66;5033557;28;20974;-50
2024/01/20 01:53:11;;;;;;;0.10;0.10;;;;;;;-6.05;100.00;101574.00;5053743;28;20483;-50
2024/01/20 01:55:38;;;;;;;0.10;0.10;;;;;;;-5.94;100.00;101571.16;5053685;28;20454;-50
2024/01/20 01:58:05;;;;;;;0.10;0.10;;;;;;;-5.89;100.00;101567.09;5053719;28;20451;-49
2024/01/20 02:00:32;;;;;;;1.50;1.50;;;;;;;-5.82;100.00;101569.25;5051978;28;20935;-50
2024/01/20 02:02:58;;;;;;;0.20;0.10;;;;;;;-5.89;100.00;101565.44;5053324;28;20509;-50
2024/01/20 02:05:25;;;;;;;0.10;0.10;;;;;;;-5.58;100.00;101562.91;5053479;28;20461;-51
2024/01/20 02:07:53;;;;;;;0.20;0.10;;;;;;;-5.54;100.00;101567.44;5053717;28;20450;-50
2024/01/20 02:10:21;;;;;;;0.10;0.10;;;;;;;-5.39;100.00;101559.63;5037638;28;20449;-50
2024/01/20 02:12:48;;;;;;;0.10;0.10;;;;;;;-5.43;100.00;101550.81;5048965;28;20526;-51
2024/01/20 02:15:15;;;;;;;0.10;0.10;;;;;;;-5.32;100.00;101555.69;5053428;28;20550;-49
2024/01/20 02:17:52;;;;;;;0.10;0.10;;;;;;;-5.28;100.00;101560.22;5052638;28;20483;-50
2024/01/20 02:20:19;;;;;;;0.20;0.10;;;;;;;-5.27;100.00;101568.09;5053185;28;20445;-50
2024/01/20 02:22:46;;;;;;;0.10;0.10;;;;;;;-5.18;100.00;101578.97;5053077;28;21150;-51
2024/01/20 02:25:12;;;;;;;0.10;0.10;;;;;;;-5.05;100.00;101577.06;5052911;28;20497;-50
2024/01/20 02:27:39;;;;;;;0.10;0.10;;;;;;;-5.10;100.00;101584.56;5052842;28;20939;-51
2024/01/20 02:30:06;;;;;;;0.10;0.10;;;;;;;-5.01;100.00;101589.34;5052946;28;20490;-52
2024/01/20 02:32:33;;;;;;;0.20;0.10;;;;;;;-4.86;100.00;101582.41;5052656;28;20493;-50
2024/01/20 02:35:00;;;;;;;0.20;0.10;;;;;;;-4.90;100.00;101585.66;5052850;28;20944;-50
2024/01/20 02:37:26;;;;;;;0.20;0.10;;;;;;;-4.89;100.00;101577.97;5038271;28;20943;-51
2024/01/20 02:39:52;;;;;;;0.20;0.10;;;;;;;-4.73;100.00;101579.66;5032945;28;20885;-50
2024/01/20 02:42:19;;;;;;;0.20;0.10;;;;;;;-4.76;100.00;101582.09;5052658;28;20521;-50
2024/01/20 02:44:45;;;;;;;0.20;0.10;;;;;;;-4.73;100.00;101583.97;5052667;28;20497;-50
2024/01/20 02:47:12;;;;;;;0.20;0.10;;;;;;;-4.57;100.00;101577.06;5038091;28;20457;-50
2024/01/20 02:49:39;;;;;;;0.20;0.10;;;;;;;-4.65;100.00;101580.09;5015024;28;20444;-51
2024/01/20 02:52:06;;;;;;;0.10;0.10;;;;;;;-4.75;100.00;101580.41;5052497;28;20495;-49
2024/01/20 02:54:32;;;;;;;0.10;0.10;;;;;;;-4.62;100.00;101583.75;5052938;28;20921;-50
2024/01/20 02:56:59;;;;;;;0.20;0.10;;;;;;;-4.66;100.00;101589.59;5052487;28;20458;-50
2024/01/20 02:59:25;;;;;;;0.20;0.10;;;;;;;-4.60;100.00;101591.59;5050619;28;20444;-50
2024/01/20 03:01:52;;;;;;;0.20;0.10;;;;;;;-4.57;100.00;101586.56;5052458;28;20984;-51
2024/01/20 03:04:18;;;;;;;0.20;0.10;;;;;;;-4.56;100.00;101599.59;5052258;28;20978;-50
2024/01/20 03:06:45;;;;;;;0.10;0.10;;;;;;;-4.57;100.00;101608.19;5052513;28;20457;-51
2024/01/20 03:09:14;;;;;;;0.20;0.10;;;;;;;-4.55;100.00;101598.78;5052322;28;20538;-50
2024/01/20 03:11:44;;;;;;;4.20;4.00;;;;;;;-4.61;100.00;101593.31;5031564;28;20494;-50
2024/01/20 03:14:11;;;;;;;10.80;10.10;;;;;;;-4.65;100.00;101581.00;5051950;28;20451;-50
2024/01/20 03:16:38;;;;;;;0.27;0.27;;;;;;;-4.65;100.00;101581.00;5052300;28;20450;-51
2024/01/20 03:19:06;;;;;;;0.10;0.10;;;;;;;-4.64;100.00;101585.38;5052139;28;20454;-50
2024/01/20 03:21:33;;;;;;;0.20;0.10;;;;;;;-4.79;100.00;101588.03;5034329;28;20471;-51
2024/01/20 03:24:00;;;;;;;0.13;0.10;;;;;;;-4.82;100.00;101579.16;5051954;28;20454;-50
2024/01/20 03:26:27;;;;;;;0.20;0.10;;;;;;;-4.78;100.00;101591.50;5051965;28;20537;-51
2024/01/20 03:28:53;;;;;;;0.20;0.10;;;;;;;-4.72;100.00;101601.31;5052090;28;20473;-50
2024/01/20 03:31:19;;;;;;;0.17;0.10;;;;;;;-4.64;100.00;101602.63;5031709;28;20559;-49
2024/01/20 03:33:46;;;;;;;0.10;0.10;;;;;;;-4.74;100.00;101610.72;5046094;28;20545;-51
2024/01/20 03:36:13;;;;;;;0.20;0.10;;;;;;;-4.96;100.00;101614.72;5046297;28;21016;-50
2024/01/20 03:38:39;;;;;;;0.23;0.20;;;;;;;-4.99;100.00;101611.97;5031790;28;20452;-50
2024/01/20 03:41:06;;;;;;;0.10;0.10;;;;;;;-5.08;100.00;101614.94;5042089;28;20470;-50
2024/01/20 03:43:32;;;;;;;0.10;0.10;;;;;;;-5.09;100.00;101620.03;5051763;28;20538;-50
2024/01/20 03:45:59;;;;;;;0.20;0.10;;;;;;;-5.10;100.00;101629.50;5051835;28;20455;-50
2024/01/20 03:48:25;;;;;;;0.10;0.10;;;;;;;-5.07;100.00;101631.41;5051702;28;20531;-51
2024/01/20 03:50:52;;;;;;;0.10;0.10;;;;;;;-5.27;100.00;101635.44;5051720;28;20533;-50
2024/01/20 03:53:18;;;;;;;0.17;0.10;;;;;;;-5.20;100.00;101635.00;5051379;28;20486;-50
2024/01/20 03:55:45;;;;;;;0.20;0.10;;;;;;;-5.33;100.00;101629.94;5051411;28;20442;-50
2024/01/20 03:58:11;;;;;;;0.17;0.10;;;;;;;-5.34;100.00;101635.91;5051464;28;20453;-50
2024/01/20 04:00:38;;;;;;;0.10;0.10;;;;;;;-5.27;100.00;101643.22;5049865;28;20877;-51
2024/01/20 04:03:04;;;;;;;0.20;0.10;;;;;;;-5.25;100.00;101638.13;5051451;28;20528;-50
2024/01/20 04:05:31;;;;;;;0.10;0.10;;;;;;;-5.18;100.00;101642.84;5051435;28;20450;-50
2024/01/20 04:07:57;;;;;;;0.10;0.10;;;;;;;-5.27;100.00;101638.03;5051321;28;20494;-50
2024/01/20 04:10:24;;;;;;;0.10;0.10;;;;;;;-5.31;100.00;101640.38;5036832;28;20445;-50
2024/01/20 04:12:50;;;;;;;0.10;0.10;;;;;;;-5.32;100.00;101642.06;5036095;28;20500;-50
2024/01/20 04:15:17;;;;;;;0.10;0.10;;;;;;;-5.38;100.00;101639.13;5051576;28;20457;-49
2024/01/20 04:17:43;;;;;;;0.10;0.10;;;;;;;-5.39;100.00;101647.69;5051347;28;20458;-50
2024/01/20 04:20:10;;;;;;;0.10;0.10;;;;;;;-5.33;100.00;101642.88;5051364;28;20450;-50
2024/01/20 04:22:36;;;;;;;0.10;0.10;;;;;;;-5.29;100.00;101644.84;5051315;28;20466;-50
2024/01/20 04:25:03;;;;;;;0.10;0.10;;;;;;;-5.42;100.00;101645.84;5051201;28;20460;-50
2024/01/20 04:27:30;;;;;;;0.10;0.10;;;;;;;-5.45;100.00;101648.25;5051103;28;20449;-50
2024/01/20 04:29:56;;;;;;;0.10;0.10;;;;;;;-5.36;100.00;101648.75;5051372;28;20459;-50
2024/01/20 04:32:23;;;;;;;0.10;0.10;;;;;;;-5.30;100.00;101649.94;5044057;28;20996;-50
2024/01/20 04:34:49;;;;;;;0.10;0.10;;;;;;;-5.49;100.00;101650.56;5017415;28;20551;-50
2024/01/20 04:37:16;;;;;;;0.10;0.10;;;;;;;-5.44;100.00;101646.56;5031408;28;20536;-50
2024/01/20 04:39:42;;;;;;;0.10;0.10;;;;;;;-5.39;100.00;101642.50;5031243;28;20558;-49
2024/01/20 04:42:09;;;;;;;0.10;0.10;;;;;;;-5.34;100.00;101646.28;5050107;28;20469;-50
2024/01/20 04:44:35;;;;;;;0.10;0.10;;;;;;;-5.20;100.00;101652.25;5051171;28;20453;-49
2024/01/20 04:47:02;;;;;;;0.10;0.10;;;;;;;-5.11;100.00;101661.41;5050964;28;20944;-50
2024/01/20 04:49:28;;;;;;;0.20;0.10;;;;;;;-5.14;100.00;101658.66;5036872;28;20457;-51
2024/01/20 04:51:57;;;;;;;0.10;0.10;;;;;;;-4.84;100.00;101664.66;5050117;28;20476;-50
2024/01/20 04:54:23;;;;;;;0.10;0.10;;;;;;;-5.04;100.00;101665.25;5048306;28;20866;-50
2024/01/20 04:56:50;;;;;;;0.10;0.10;;;;;;;-4.75;100.00;101653.00;5054487;28;20928;-50
2024/01/20 04:59:16;;;;;;;0.10;0.10;;;;;;;-4.83;100.00;101645.69;5054885;28;20446;-51
2024/01/20 05:01:45;;;;;;;0.10;0.10;;;;;;;-4.91;100.00;101647.00;5054452;28;20919;-51
2024/01/20 05:04:11;;;;;;;0.20;0.10;;;;;;;-4.81;100.00;101649.25;5054798;28;20512;-50
2024/01/20 05:06:38;;;;;;;0.10;0.10;;;;;;;-4.82;100.00;101647.47;5028523;28;20458;-50
2024/01/20 05:09:05;;;;;;;0.10;0.10;;;;;;;-4.94;100.00;101648.50;5054724;28;20474;-50
2024/01/20 05:11:32;;;;;;;0.20;0.10;;;;;;;-4.93;100.00;101653.78;5032704;28;20470;-50
2024/01/20 05:13:58;;;;;;;0.10;0.10;;;;;;;-4.85;100.00;101652.50;5054490;28;20492;-50
2024/01/20 05:16:25;;;;;;;0.20;0.10;;;;;;;-4.63;100.00;101657.16;5054571;28;20505;-50
2024/01/20 05:18:52;;;;;;;0.10;0.10;;;;;;;-4.73;100.00;101665.25;5052741;28;20541;-50
2024/01/20 05:21:19;;;;;;;0.10;0.10;;;;;;;-4.80;100.00;101660.53;5029594;28;20909;-51
2024/01/20 05:23:46;;;;;;;0.10;0.10;;;;;;;-4.72;100.00;101661.84;5054279;28;20443;-50
2024/01/20 05:26:13;;;;;;;0.10;0.10;;;;;;;-4.73;100.00;101670.44;5054414;28;20458;-52
2024/01/20 05:28:39;;;;;;;0.10;0.10;;;;;;;-4.72;100.00;101672.22;5049918;28;21051;-50
2024/01/20 05:31:06;;;;;;;0.20;0.10;;;;;;;-4.62;100.00;101689.19;5054087;28;20901;-50
2024/01/20 05:33:32;;;;;;;0.10;0.10;;;;;;;-4.49;100.00;101686.47;5053887;28;20496;-50
2024/01/20 05:35:59;;;;;;;1.20;1.20;;;;;;;-4.56;100.00;101690.41;5050878;28;20827;-50
2024/01/20 05:38:25;;;;;;;0.20;0.10;;;;;;;-4.15;100.00;101696.94;5034155;28;20463;-50
2024/01/20 05:40:52;;;;;;;0.20;0.10;;;;;;;-4.30;100.00;101709.09;5042595;28;20473;-50
2024/01/20 05:43:18;;;;;;;0.20;0.10;;;;;;;-4.53;100.00;101706.13;5053731;28;20924;-50
2024/01/20 05:45:45;;;;;;;0.20;0.10;;;;;;;-4.45;100.00;101700.47;5054016;28;20534;-50
2024/01/20 05:48:11;;;;;;;0.10;0.10;;;;;;;-4.60;100.00;101695.34;5053787;28;20446;-50
2024/01/20 05:50:38;;;;;;;0.10;0.10;;;;;;;-4.50;100.00;101697.66;5054058;28;20462;-51
2024/01/20 05:53:04;;;;;;;0.20;0.20;;;;;;;-4.48;100.00;101709.00;5053608;28;20991;-50
2024/01/20 05:55:30;;;;;;;0.13;0.10;;;;;;;-4.42;100.00;101701.53;5053895;28;20469;-49
2024/01/20 05:57:57;;;;;;;0.20;0.10;;;;;;;-4.66;100.00;101710.56;5053685;28;20443;-50
2024/01/20 06:00:23;;;;;;;0.10;0.10;;;;;;;-4.63;100.00;101706.44;5053189;28;20534;-50
2024/01/20 06:02:50;;;;;;;0.10;0.10;;;;;;;-4.69;100.00;101710.38;5053411;28;20550;-50
2024/01/20 06:05:16;;;;;;;0.10;0.10;;;;;;;-4.83;99.39;101713.09;5053746;28;20783;-49
2024/01/20 06:07:43;;;;;;;0.40;0.40;;;;;;;-4.85;99.35;101719.03;5053171;28;20910;-50
2024/01/20 06:10:09;;;;;;;0.20;0.10;;;;;;;-4.87;99.90;101726.72;5040338;28;20456;-50
2024/01/20 06:12:36;;;;;;;0.10;0.10;;;;;;;-4.85;100.00;101724.19;5044760;28;20925;-50
2024/01/20 06:15:03;;;;;;;0.20;0.10;;;;;;;-4.83;99.45;101725.19;5053358;28;20469;-51
2024/01/20 06:17:29;;;;;;;0.10;0.10;;;;;;;-4.94;100.00;101728.84;5053028;28;20462;-50
2024/01/20 06:19:56;;;;;;;0.10;0.10;;;;;;;-4.95;100.00;101730.56;5053198;28;20940;-50
2024/01/20 06:22:22;;;;;;;0.20;0.10;;;;;;;-4.99;100.00;101730.31;5053312;28;20900;-50
2024/01/20 06:24:48;;;;;;;0.10;0.10;;;;;;;-5.01;100.00;101732.81;5053273;28;20535;-49
2024/01/20 06:27:15;;;;;;;0.10;0.10;;;;;;;-5.00;100.00;101738.91;5052802;28;20966;-49
2024/01/20 06:29:41;;;;;;;0.10;0.10;;;;;;;-5.11;100.00;101749.53;5049288;28;20443;-49
2024/01/20 06:32:08;;;;;;;0.13;0.10;;;;;;;-5.12;100.00;101749.44;5052733;28;20507;-50
2024/01/20 06:34:34;;;;;;;0.20;0.10;;;;;;;-5.00;100.00;101751.84;5053166;28;20457;-49
2024/01/20 06:37:01;;;;;;;0.10;0.10;;;;;;;-5.07;100.00;101754.09;5041197;28;20868;-49
2024/01/20 06:39:27;;;;;;;0.10;0.10;;;;;;;-5.11;100.00;101766.78;5033024;28;20452;-51
2024/01/20 06:41:54;;;;;;;0.10;0.10;;;;;;;-5.08;100.00;101762.66;5049401;28;21038;-50
2024/01/20 06:44:22;;;;;;;0.10;0.10;;;;;;;-4.83;100.00;101774.44;5052743;28;20447;-49
2024/01/20 06:46:48;;;;;;;0.10;0.10;;;;;;;-4.64;99.52;101774.69;5052607;28;20447;-50
2024/01/20 06:49:15;;;;;;;0.10;0.10;;;;;;;-4.86;98.97;101784.66;5052860;28;20572;-50
2024/01/20 06:51:43;;;;;;;0.10;0.10;;;;;;;-5.00;99.42;101790.75;5052380;28;20475;-50
2024/01/20 06:54:09;;;;;;;0.10;0.10;;;;;;;-4.77;99.58;101786.06;5052892;28;20486;-50
2024/01/20 06:56:36;;;;;;;0.10;0.10;;;;;;;-5.14;100.00;101793.41;5052496;28;20461;-50
2024/01/20 06:59:02;;;;;;;0.10;0.10;;;;;;;-5.09;100.00;101789.38;5049650;28;20450;-50
2024/01/20 07:01:29;;;;;;;0.10;0.10;;;;;;;-5.42;100.00;101790.00;5051099;28;20463;-50
2024/01/20 07:03:55;;;;;;;0.10;0.10;;;;;;;-5.38;100.00;101797.13;5052758;28;20512;-49
2024/01/20 07:06:25;;;;;;;0.10;0.10;;;;;;;-5.53;100.00;101797.13;5048527;28;20435;-49
2024/01/20 07:08:54;;;;;;;0.10;0.10;;;;;;;-5.38;100.00;101805.81;5052515;28;20534;-50
2024/01/20 07:11:23;;;;;;;0.10;0.10;;;;;;;-5.44;100.00;101805.44;5040323;28;20565;-50
2024/01/20 07:13:49;;;;;;;0.10;0.10;;;;;;;-5.51;100.00;101805.88;5051995;28;20855;-51
2024/01/20 07:16:19;;;;;;;0.10;0.10;;;;;;;-5.58;100.00;101808.00;5052289;28;20439;-50
2024/01/20 07:18:46;;;;;;;0.10;0.10;;;;;;;-5.51;100.00;101815.34;5052706;28;20550;-50
2024/01/20 07:21:12;;;;;;;0.10;0.10;;;;;;;-5.66;100.00;101816.19;5052054;28;20558;-49
2024/01/20 07:23:39;;;;;;;0.10;0.10;;;;;;;-5.44;100.00;101815.81;5050505;28;20446;-50
2024/01/20 07:26:05;;;;;;;0.13;0.10;;;;;;;-5.43;100.00;101815.00;5038914;28;20542;-49
2024/01/20 07:28:32;;;;;;;0.10;0.10;;;;;;;-5.38;100.00;101818.75;5047803;28;20963;-50
2024/01/20 07:30:58;;;;;;;0.10;0.10;;;;;;;-5.34;100.00;101830.22;5032211;28;20567;-50
2024/01/20 07:33:25;;;;;;;0.10;0.10;;;;;;;-5.30;100.00;101834.78;5045184;28;21033;-51
2024/01/20 07:35:51;;;;;;;0.20;0.10;;;;;;;-5.31;100.00;101827.81;5049797;28;20451;-50
2024/01/20 07:38:22;;;;;;;0.10;0.10;;;;;;;-5.41;100.00;101825.47;5031905;28;20494;-49
2024/01/20 07:40:49;;;;;;;0.10;0.10;;;;;;;-5.20;100.00;101818.09;5043725;28;20450;-50
2024/01/20 07:43:15;;;;;;;0.10;0.10;;;;;;;-5.25;100.00;101827.25;5025545;28;20569;-49
2024/01/20 07:45:41;;;;;;;0.10;0.10;;;;;;;-5.10;100.00;101826.47;5051715;28;20447;-50
2024/01/20 07:48:08;;;;;;;0.10;0.10;;;;;;;-5.02;100.00;101826.94;5051591;28;20541;-50
2024/01/20 07:50:34;;;;;;;0.10;0.10;;;;;;;-4.95;100.00;101831.66;5051684;28;20830;-53
2024/01/20 07:53:01;;;;;;;0.10;0.10;;;;;;;-5.04;100.00;101844.09;5051299;28;20494;-49
2024/01/20 07:55:27;;;;;;;0.10;0.10;;;;;;;-4.97;100.00;101838.47;5051481;28;20546;-50
2024/01/20 07:57:54;;;;;;;0.10;0.10;;;;;;;-5.03;100.00;101842.41;5051524;28;20502;-50
2024/01/20 08:00:20;;;;;;;0.10;0.10;;;;;;;-4.91;100.00;101848.31;5051634;28;20447;-50
2024/01/20 08:02:47;;;;;;;0.10;0.10;;;;;;;-4.91;100.00;101846.63;5051351;28;20475;-49
2024/01/20 08:05:13;;;;;;;0.10;0.10;;;;;;;-4.81;100.00;101856.69;5051330;28;20542;-49
2024/01/20 08:07:42;;;;;;;0.10;0.10;;;;;;;-4.88;100.00;101851.97;5047931;28;20929;-49
2024/01/20 08:10:09;;;;;;;0.10;0.10;;;;;;;-4.86;100.00;101857.25;5038380;28;20539;-49
2024/01/20 08:12:35;;;;;;;0.10;0.10;;;;;;;-4.94;100.00;101861.06;5043590;28;20546;-49
2024/01/20 08:15:02;;;;;;;0.20;0.20;;;;;;;-4.73;100.00;101867.53;5051611;28;20457;-49
2024/01/20 08:17:28;;;;;;;0.10;0.10;;;;;;;-4.72;99.45;101863.25;5051168;28;20865;-49
2024/01/20 08:19:55;;;;;;;0.10;0.10;;;;;;;-4.03;100.00;101858.56;5039089;28;20443;-50
2024/01/20 08:22:21;;;;;;;0.10;0.10;;;;;;;-4.54;98.39;101867.78;5047731;28;20845;-50
2024/01/20 08:24:48;;;;;;;0.10;0.10;;;;;;;-4.64;98.08;101870.66;5037843;28;20532;-50
2024/01/20 08:27:14;;;;;;;0.10;0.10;;;;;;;-4.48;98.53;101868.16;5044304;28;20453;-50
2024/01/20 08:29:41;;;;;;;0.10;0.10;;;;;;;-4.38;97.96;101869.56;5051817;28;20862;-50
2024/01/20 08:32:07;;;;;;;0.10;0.10;;;;;;;-4.61;98.31;101870.84;5055085;28;20971;-51
2024/01/20 08:34:34;;;;;;;0.13;0.10;;;;;;;-4.51;98.07;101877.47;5040247;28;20485;-51
2024/01/20 08:37:00;;;;;;;0.10;0.10;;;;;;;-4.38;97.83;101879.97;5036539;28;20475;-50
2024/01/20 08:39:27;;;;;;;0.20;0.10;;;;;;;-4.70;98.23;101890.16;5023649;28;20949;-51
2024/01/20 08:41:55;;;;;;;0.20;0.10;;;;;;;-4.51;98.05;101888.72;5027834;28;20472;-51
2024/01/20 08:44:21;;;;;;;0.10;0.10;;;;;;;-4.41;98.57;101887.53;5045847;28;20439;-50
2024/01/20 08:46:48;;;;;;;0.17;0.10;;;;;;;-4.38;98.64;101887.75;5037467;28;20475;-51
2024/01/20 08:49:15;;;;;;;0.20;0.10;;;;;;;-4.08;97.95;101887.69;5040092;28;20443;-50
2024/01/20 08:51:41;;;;;;;0.60;0.60;;;;;;;-3.84;97.58;101889.00;5054493;28;20490;-51
2024/01/20 08:54:07;;;;;;;0.20;0.10;;;;;;;-4.24;95.29;101889.41;5055072;28;20505;-52
2024/01/20 08:56:34;;;;;;;0.20;0.10;;;;;;;-4.57;96.97;101892.66;5054609;28;20516;-50
2024/01/20 08:59:01;;;;;;;0.20;0.10;;;;;;;-4.23;96.87;101898.09;5054858;28;20538;-50
2024/01/20 09:01:27;;;;;;;0.10;0.10;;;;;;;-3.87;96.11;101901.84;5054587;28;20477;-51
2024/01/20 09:03:54;;;;;;;0.10;0.10;;;;;;;-3.73;94.76;101921.69;5054685;28;20500;-50
2024/01/20 09:06:20;;;;;;;0.10;0.10;;;;;;;-3.87;95.20;101913.13;5054306;28;20447;-50
2024/01/20 09:08:47;;;;;;;0.10;0.10;;;;;;;-4.02;94.46;101904.47;5054770;28;20454;-52
2024/01/20 09:11:14;;;;;;;0.10;0.10;;;;;;;-4.50;94.69;101906.09;5033214;28;20470;-50
2024/01/20 09:13:41;;;;;;;0.10;0.10;;;;;;;-4.57;96.11;101898.72;5054320;28;20485;-50
2024/01/20 09:16:09;;;;;;;0.10;0.10;;;;;;;-4.63;96.45;101895.81;5054209;28;20844;-50
2024/01/20 09:18:35;;;;;;;0.13;0.10;;;;;;;-4.71;96.84;101894.44;5054228;28;20450;-50
2024/01/20 09:21:02;;;;;;;0.10;0.10;;;;;;;-4.62;96.81;101895.00;5054408;28;20552;-51
2024/01/20 09:23:29;;;;;;;0.13;0.10;;;;;;;-4.68;96.82;101894.63;5054450;28;20446;-51
2024/01/20 09:25:55;;;;;;;0.20;0.10;;;;;;;-4.88;97.05;101910.72;5054310;28;20450;-50
2024/01/20 09:28:21;;;;;;;0.10;0.10;;;;;;;-4.77;97.90;101904.47;5054196;28;20446;-49
2024/01/20 09:30:48;;;;;;;0.10;0.10;;;;;;;-4.94;98.80;101905.16;5053943;28;20454;-50
2024/01/20 09:33:16;;;;;;;2.93;2.83;;;;;;;-4.81;98.51;101905.06;5053999;28;20574;-51
2024/01/20 09:35:43;;;;;;;0.10;0.10;;;;;;;-4.86;98.26;101910.00;5052336;28;20450;-50
2024/01/20 09:38:09;;;;;;;0.10;0.10;;;;;;;-4.70;98.50;101911.78;5034356;28;20487;-50
2024/01/20 09:40:36;;;;;;;0.10;0.10;;;;;;;-4.54;99.04;101917.06;5039621;28;20439;-51
2024/01/20 09:43:04;;;;;;;0.10;0.10;;;;;;;-4.42;98.66;101921.19;5039041;28;20654;-50
2024/01/20 09:45:31;;;;;;;0.10;0.10;;;;;;;-4.37;98.10;101922.38;5038690;28;20534;-50
2024/01/20 09:47:57;;;;;;;0.10;0.10;;;;;;;-4.52;98.46;101920.66;5030315;28;20563;-50
2024/01/20 09:50:24;;;;;;;0.10;0.10;;;;;;;-4.59;98.50;101926.28;5020982;28;20463;-49
2024/01/20 09:53:14;;;;;;;0.10;0.10;;;;;;;-4.50;98.42;101920.75;5031099;28;20599;-50
2024/01/20 09:55:46;;;;;;;0.20;0.10;;;;;;;-4.14;98.99;101919.34;5052836;28;21018;-51
2024/01/20 09:58:14;;;;;;;0.10;0.10;;;;;;;-4.63;98.76;101934.72;5051110;28;20808;-50
2024/01/20 10:00:41;;;;;;;0.20;0.10;;;;;;;-4.69;99.35;101930.84;5054129;28;20450;-50
2024/01/20 10:03:10;;;;;;;0.10;0.10;;;;;;;-4.74;98.82;101927.09;5053594;28;20457;-49
2024/01/20 10:05:37;;;;;;;0.20;0.10;;;;;;;-4.63;97.95;101924.34;5038155;28;20957;-50
2024/01/20 10:08:05;;;;;;;0.10;0.10;;;;;;;-4.67;99.05;101922.34;5036943;28;20450;-50
2024/01/20 10:10:32;;;;;;;0.10;0.10;;;;;;;-4.40;97.81;101916.97;5026975;28;20977;-52
2024/01/20 10:13:00;;;;;;;0.10;0.10;;;;;;;-4.09;96.99;101914.44;5035450;28;20472;-50
2024/01/20 10:15:29;;;;;;;0.10;0.10;;;;;;;-4.12;97.02;101911.66;5036249;28;21009;-48
2024/01/20 10:18:10;;;;;;;0.10;0.10;;;;;;;-4.40;98.10;101924.75;5053687;28;20457;-50
2024/01/20 10:20:37;;;;;;;0.10;0.10;;;;;;;-4.85;98.78;101923.84;5049583;28;20944;-50
2024/01/20 10:23:07;;;;;;;0.10;0.10;;;;;;;-4.64;98.94;101925.13;5048990;28;20504;-50
2024/01/20 10:25:34;;;;;;;0.10;0.10;;;;;;;-4.60;98.54;101924.50;5053148;28;20447;-52
2024/01/20 10:28:00;;;;;;;0.10;0.10;;;;;;;-4.51;98.23;101909.47;5052906;28;20522;-51
2024/01/20 10:30:28;;;;;;;0.20;0.10;;;;;;;-4.25;97.88;101912.66;5027003;28;20484;-50
2024/01/20 10:32:58;;;;;;;0.10;0.10;;;;;;;-4.65;98.65;101915.56;5036411;28;20475;-50
2024/01/20 10:35:35;;;;;;;0.10;0.10;;;;;;;-4.46;98.00;101909.75;5028505;28;20501;-50
2024/01/20 10:38:09;;;;;;;0.20;0.10;;;;;;;-4.39;98.63;101906.69;5031081;28;20447;-50
2024/01/20 10:40:36;;;;;;;0.20;0.10;;;;;;;-4.30;98.16;101919.28;5022013;28;20450;-50
2024/01/20 10:43:13;;;;;;;0.10;0.10;;;;;;;-4.80;98.50;101909.44;5052731;28;20936;-50
2024/01/20 10:45:53;;;;;;;0.10;0.10;;;;;;;-4.62;99.89;101899.28;5042243;28;20447;-50
2024/01/20 10:48:25;;;;;;;0.10;0.10;;;;;;;-4.98;99.90;101900.59;5046658;28;20930;-50
2024/01/20 10:50:57;;;;;;;0.10;0.10;;;;;;;-5.15;100.00;101892.69;5034451;28;20514;-50
2024/01/20 10:53:27;;;;;;;0.10;0.10;;;;;;;-5.53;100.00;101892.06;5050779;28;20447;-49
2024/01/20 10:55:54;;;;;;;0.20;0.10;;;;;;;-5.31;100.00;101895.19;5036764;28;20987;-50
2024/01/20 10:58:32;;;;;;;0.10;0.10;;;;;;;-5.29;100.00;101896.16;5051168;28;20451;-49
2024/01/20 11:00:59;;;;;;;0.10;0.10;;;;;;;-5.19;100.00;101893.34;5035210;28;20916;-51
2024/01/20 11:03:26;;;;;;;0.10;0.10;;;;;;;-4.87;100.00;101897.84;5052691;28;20446;-49
2024/01/20 11:05:53;;;;;;;0.10;0.10;;;;;;;-4.67;100.00;101891.22;5049263;28;20454;-50
2024/01/20 11:08:25;;;;;;;0.10;0.10;;;;;;;-4.57;100.00;101892.66;5027905;28;20923;-49
2024/01/20 11:10:53;;;;;;;0.10;0.10;;;;;;;-4.93;100.00;101904.38;5052301;28;20447;-50
2024/01/20 11:13:26;;;;;;;0.10;0.10;;;;;;;-4.72;100.00;101905.63;5017484;28;20536;-49
2024/01/20 11:15:53;;;;;;;0.10;0.10;;;;;;;-5.08;100.00;101896.53;5045627;28;20546;-51
2024/01/20 11:18:23;;;;;;;0.20;0.10;;;;;;;-5.00;100.00;101902.19;5046879;28;20539;-50
2024/01/20 11:21:00;;;;;;;0.10;0.10;;;;;;;-5.18;100.00;101907.19;5040262;28;20471;-50